createdAt,value
2022-09-05T00:02:52.747Z,17.87
2022-09-05T00:06:01.783Z,17.70
2022-09-05T00:09:00.869Z,17.57
2022-09-05T00:11:52.013Z,16.68
2022-09-05T00:15:18.928Z,17.21
2022-09-05T00:19:22.897Z,17.46
2022-09-05T00:24:26.249Z,17.44
2022-09-05T00:25:30.341Z,17.69
2022-09-05T00:28:41.167Z,17.62
2022-09-05T00:31:58.282Z,17.17
2022-09-05T00:35:19.436Z,17.46
2022-09-05T00:38:18.512Z,17.77
2022-09-05T00:41:08.651Z,17.72
2022-09-05T00:43:56.715Z,17.68
2022-09-05T00:46:47.672Z,17.59
2022-09-05T00:49:42.826Z,17.51
2022-09-05T00:52:41.474Z,17.61
2022-09-05T00:55:27.611Z,17.64
2022-09-05T00:58:35.137Z,17.67
2022-09-05T01:01:31.757Z,17.75
2022-09-05T01:04:32.712Z,17.68
2022-09-05T01:07:49.848Z,17.52
2022-09-05T01:10:58.263Z,17.57
2022-09-05T01:13:52.504Z,17.60
2022-09-05T01:16:45.216Z,17.47
2022-09-05T01:19:40.755Z,17.57
2022-09-05T01:22:51.366Z,17.57
2022-09-05T01:26:12.154Z,17.40
2022-09-05T01:29:18.566Z,17.51
2022-09-05T01:32:30.207Z,17.45
2022-09-05T01:36:03.399Z,17.40
2022-09-05T01:39:36.621Z,17.02
2022-09-05T01:42:31.726Z,16.14
2022-09-05T01:45:32.230Z,16.42
2022-09-05T01:48:47.714Z,16.93
2022-09-05T01:51:52.235Z,16.75
2022-09-05T01:55:00.629Z,16.49
2022-09-05T01:57:53.366Z,16.44
2022-09-05T02:00:44.481Z,16.97
2022-09-05T02:03:44.313Z,17.17
2022-09-05T02:06:51.838Z,16.99
2022-09-05T02:10:07.418Z,17.30
2022-09-05T02:13:13.020Z,17.33
2022-09-05T02:16:08.718Z,17.17
2022-09-05T02:18:57.778Z,16.76
2022-09-05T02:22:06.079Z,16.64
2022-09-05T02:26:00.761Z,16.99
2022-09-05T02:28:17.005Z,16.06
2022-09-05T02:31:19.460Z,15.71
2022-09-05T02:34:15.676Z,15.99
2022-09-05T02:37:16.308Z,15.13
2022-09-05T02:45:08.419Z,15.63
2022-09-05T02:45:21.236Z,15.65
2022-09-05T02:47:22.608Z,15.61
2022-09-05T02:57:27.403Z,15.88
2022-09-05T02:57:41.946Z,16.47
2022-09-05T02:57:42.665Z,14.40
2022-09-05T03:00:06.010Z,14.01
2022-09-05T03:02:58.306Z,13.94
2022-09-05T03:06:01.087Z,14.34
2022-09-05T03:09:25.217Z,14.77
2022-09-05T03:12:44.932Z,15.57
2022-09-05T03:15:49.812Z,15.91
2022-09-05T03:18:58.326Z,15.98
2022-09-05T03:22:22.776Z,16.04
2022-09-05T03:25:24.685Z,16.37
2022-09-05T03:28:10.956Z,16.40
2022-09-05T03:31:22.100Z,16.50
2022-09-05T03:34:48.140Z,16.51
2022-09-05T03:38:10.377Z,16.30
2022-09-05T03:40:59.273Z,16.37
2022-09-05T03:44:00.794Z,15.90
2022-09-05T03:47:02.134Z,16.04
2022-09-05T03:53:51.022Z,16.08
2022-09-05T03:57:15.449Z,16.11
2022-09-05T03:57:16.677Z,16.09
2022-09-05T04:00:20.951Z,15.39
2022-09-05T04:08:16.944Z,15.27
2022-09-05T04:08:18.375Z,14.92
2022-09-05T04:10:05.570Z,14.72
2022-09-05T04:13:00.876Z,15.24
2022-09-05T04:16:00.463Z,15.20
2022-09-05T04:18:56.079Z,15.29
2022-09-05T04:21:50.025Z,15.69
2022-09-05T04:25:13.951Z,16.22
2022-09-05T04:28:28.475Z,16.45
2022-09-05T04:31:17.704Z,16.49
2022-09-05T04:34:36.288Z,16.30
2022-09-05T04:37:47.998Z,16.47
2022-09-05T04:40:46.943Z,16.16
2022-09-05T04:43:42.394Z,16.55
2022-09-05T04:46:32.904Z,16.35
2022-09-05T04:49:39.985Z,16.49
2022-09-05T04:52:49.483Z,16.51
2022-09-05T04:55:50.864Z,16.65
2022-09-05T05:00:24.418Z,16.50
2022-09-05T05:06:13.103Z,16.75
2022-09-05T05:06:15.943Z,16.72
2022-09-05T05:08:38.354Z,16.76
2022-09-05T05:16:38.364Z,16.87
2022-09-05T05:18:12.790Z,16.59
2022-09-05T05:18:40.967Z,16.86
2022-09-05T05:21:30.573Z,16.92
2022-09-05T05:24:22.106Z,16.92
2022-09-05T05:27:18.208Z,16.50
2022-09-05T05:30:07.865Z,15.55
2022-09-05T05:32:54.965Z,16.46
2022-09-05T05:35:48.292Z,16.46
2022-09-05T05:38:46.195Z,16.32
2022-09-05T05:41:45.007Z,16.57
2022-09-05T05:44:33.573Z,16.00
2022-09-05T05:47:31.415Z,16.57
2022-09-05T05:50:40.796Z,17.20
2022-09-05T05:53:52.222Z,17.39
2022-09-05T05:56:46.788Z,17.56
2022-09-05T06:00:01.434Z,17.84
2022-09-05T06:03:24.708Z,17.91
2022-09-05T06:06:26.614Z,18.21
2022-09-05T06:14:48.231Z,18.42
2022-09-05T06:14:55.327Z,18.22
2022-09-05T06:16:39.278Z,18.20
2022-09-05T06:21:12.757Z,18.00
2022-09-05T06:23:36.791Z,18.33
2022-09-05T06:26:49.399Z,18.67
2022-09-05T06:29:47.198Z,18.84
2022-09-05T06:32:41.780Z,19.44
2022-09-05T06:36:04.436Z,19.04
2022-09-05T06:39:11.206Z,19.28
2022-09-05T06:42:42.251Z,19.42
2022-09-05T06:45:58.572Z,19.41
2022-09-05T06:49:30.886Z,19.60
2022-09-05T06:52:44.103Z,19.83
2022-09-05T06:55:40.344Z,20.06
2022-09-05T06:59:09.462Z,19.66
2022-09-05T07:02:07.639Z,19.49
2022-09-05T07:05:37.721Z,19.99
2022-09-05T07:08:36.088Z,20.17
2022-09-05T07:11:36.589Z,20.73
2022-09-05T07:14:27.556Z,21.00
2022-09-05T07:17:18.249Z,20.91
2022-09-05T07:20:22.056Z,21.00
2022-09-05T07:24:06.234Z,19.89
2022-09-05T07:26:53.926Z,21.06
2022-09-05T07:29:53.316Z,20.09
2022-09-05T07:32:58.578Z,21.07
2022-09-05T07:35:45.166Z,21.71
2022-09-05T07:38:52.031Z,21.59
2022-09-05T07:41:42.096Z,21.94
2022-09-05T07:44:40.420Z,22.27
2022-09-05T07:47:30.273Z,21.48
2022-09-05T07:52:47.422Z,22.00
2022-09-05T07:57:01.705Z,22.05
2022-09-05T07:57:22.302Z,22.59
2022-09-05T07:59:53.906Z,22.69
2022-09-05T08:02:50.255Z,23.18
2022-09-05T08:05:45.670Z,23.36
2022-09-05T08:09:00.424Z,23.23
2022-09-05T08:12:02.645Z,22.94
2022-09-05T08:15:10.234Z,23.74
2022-09-05T08:18:09.986Z,24.16
2022-09-05T08:21:27.167Z,23.91
2022-09-05T08:24:23.790Z,24.05
2022-09-05T08:27:20.639Z,23.29
2022-09-05T08:30:26.051Z,22.89
2022-09-05T08:33:17.529Z,23.94
2022-09-05T08:36:16.841Z,23.82
2022-09-05T08:39:04.894Z,24.19
2022-09-05T08:42:09.931Z,24.44
2022-09-05T08:46:36.346Z,25.02
2022-09-05T08:49:02.107Z,24.02
2022-09-05T08:52:14.045Z,24.36
2022-09-05T08:55:18.147Z,23.39
2022-09-05T08:58:27.138Z,23.88
2022-09-05T09:02:13.795Z,24.40
2022-09-05T09:05:01.157Z,23.99
2022-09-05T09:08:39.134Z,24.53
2022-09-05T09:11:36.620Z,24.83
2022-09-05T09:14:35.532Z,24.95
2022-09-05T09:17:42.968Z,25.99
2022-09-05T09:20:45.044Z,25.65
2022-09-05T09:23:51.420Z,25.95
2022-09-05T09:26:42.982Z,26.46
2022-09-05T09:29:34.463Z,26.69
2022-09-05T09:32:24.335Z,26.02
2022-09-05T09:35:17.369Z,26.88
2022-09-05T09:38:28.325Z,27.17
2022-09-05T09:41:17.252Z,27.17
2022-09-05T09:44:28.824Z,26.21
2022-09-05T09:47:22.280Z,26.06
2022-09-05T09:50:08.631Z,26.02
2022-09-05T09:53:05.518Z,26.47
2022-09-05T09:56:28.968Z,26.33
2022-09-05T09:59:49.678Z,27.71
2022-09-05T10:09:50.554Z,28.21
2022-09-05T10:10:35.081Z,28.41
2022-09-05T10:10:48.123Z,28.85
2022-09-05T10:13:51.745Z,28.22
2022-09-05T10:17:15.239Z,26.82
2022-09-05T10:20:24.045Z,26.63
2022-09-05T10:23:52.254Z,26.51
2022-09-05T10:26:53.762Z,26.17
2022-09-05T10:29:44.060Z,27.63
2022-09-05T10:35:07.572Z,28.14
2022-09-05T10:35:51.354Z,27.24
2022-09-05T10:38:43.254Z,28.82
2022-09-05T10:41:52.532Z,27.90
2022-09-05T10:44:45.709Z,28.02
2022-09-05T10:47:35.358Z,29.63
2022-09-05T10:50:30.432Z,30.06
2022-09-05T10:53:39.124Z,30.90
2022-09-05T10:56:34.235Z,29.95
2022-09-05T11:02:24.315Z,31.55
2022-09-05T11:02:43.870Z,29.35
2022-09-05T11:05:39.942Z,30.74
2022-09-05T11:09:06.428Z,31.51
2022-09-05T11:12:16.104Z,32.06
2022-09-05T11:15:08.827Z,31.60
2022-09-05T11:18:01.009Z,29.21
2022-09-05T11:21:20.024Z,28.41
2022-09-05T11:24:20.141Z,29.54
2022-09-05T11:27:40.507Z,27.70
2022-09-05T11:30:34.443Z,28.36
2022-09-05T11:39:51.928Z,30.35
2022-09-05T11:40:05.509Z,30.12
2022-09-05T11:40:29.053Z,28.87
2022-09-05T11:43:37.812Z,28.93
2022-09-05T11:46:34.276Z,30.13
2022-09-05T11:49:43.702Z,27.95
2022-09-05T11:52:55.650Z,29.34
2022-09-05T11:56:26.704Z,29.96
2022-09-05T11:59:34.961Z,29.71
2022-09-05T12:03:12.163Z,30.01
2022-09-05T12:06:57.217Z,30.73
2022-09-05T12:10:43.492Z,31.02
2022-09-05T12:13:35.871Z,27.34
2022-09-05T12:16:45.275Z,29.51
2022-09-05T12:19:41.865Z,29.96
2022-09-05T12:23:01.077Z,28.81
2022-09-05T12:27:41.163Z,29.34
2022-09-05T12:29:29.236Z,28.82
2022-09-05T12:33:58.037Z,27.95
2022-09-05T12:36:12.351Z,27.39
2022-09-05T12:40:28.808Z,26.16
2022-09-05T12:42:38.684Z,27.01
2022-09-05T12:48:53.265Z,29.39
2022-09-05T12:51:47.679Z,29.64
2022-09-05T12:54:42.018Z,28.59
2022-09-05T13:01:36.559Z,27.39
2022-09-05T13:03:01.186Z,29.17
2022-09-05T13:04:16.761Z,28.83
2022-09-05T13:07:10.779Z,30.05
2022-09-05T13:12:55.408Z,29.48
2022-09-05T13:15:01.415Z,29.45
2022-09-05T13:16:24.820Z,29.22
2022-09-05T13:19:21.568Z,29.21
2022-09-05T13:22:10.153Z,29.97
2022-09-05T13:25:13.127Z,30.74
2022-09-05T13:28:06.674Z,31.11
2022-09-05T13:34:12.692Z,30.75
2022-09-05T13:38:04.486Z,31.11
2022-09-05T13:38:14.752Z,30.73
2022-09-05T13:40:43.777Z,31.40
2022-09-05T13:43:36.487Z,31.50
2022-09-05T13:46:33.038Z,31.45
2022-09-05T13:49:32.183Z,31.44
2022-09-05T13:52:31.294Z,31.25
2022-09-05T13:56:00.507Z,30.96
2022-09-05T13:58:57.220Z,31.30
2022-09-05T14:02:25.815Z,30.74
2022-09-05T14:05:29.147Z,30.50
2022-09-05T14:08:18.079Z,30.80
2022-09-05T14:11:52.268Z,30.79
2022-09-05T14:18:28.016Z,31.01
2022-09-05T14:21:17.379Z,31.11
2022-09-05T14:24:16.986Z,31.10
2022-09-05T14:27:31.928Z,31.37
2022-09-05T14:35:23.474Z,31.30
2022-09-05T14:37:46.829Z,29.68
2022-09-05T14:37:53.651Z,30.60
2022-09-05T14:40:44.447Z,31.50
2022-09-05T14:43:33.872Z,31.64
2022-09-05T14:46:57.291Z,31.25
2022-09-05T14:50:06.142Z,31.71
2022-09-05T14:57:23.008Z,31.57
2022-09-05T15:02:54.992Z,31.56
2022-09-05T15:03:04.854Z,31.80
2022-09-05T15:05:51.640Z,31.40
2022-09-05T15:11:24.175Z,31.42
2022-09-05T15:12:23.843Z,31.47
2022-09-05T15:14:58.490Z,32.00
2022-09-05T15:17:49.013Z,30.09
2022-09-05T15:20:41.036Z,31.35
2022-09-05T15:23:27.278Z,31.47
2022-09-05T15:26:25.743Z,32.10
2022-09-05T15:29:14.717Z,32.23
2022-09-05T15:32:21.454Z,32.30
2022-09-05T15:35:07.936Z,32.07
2022-09-05T15:37:54.548Z,32.43
2022-09-05T15:40:40.762Z,32.47
2022-09-05T15:43:27.205Z,32.67
2022-09-05T15:46:13.669Z,32.54
2022-09-05T15:48:59.975Z,32.55
2022-09-05T15:51:49.767Z,32.82
2022-09-05T15:54:40.012Z,33.33
2022-09-05T15:57:28.897Z,32.83
2022-09-05T16:00:33.710Z,32.46
2022-09-05T16:05:44.747Z,32.90
2022-09-05T16:10:33.512Z,33.31
2022-09-05T16:10:50.281Z,33.56
2022-09-05T16:12:46.413Z,33.75
2022-09-05T16:22:36.230Z,33.47
2022-09-05T16:23:23.748Z,33.87
2022-09-05T16:23:35.082Z,33.51
2022-09-05T16:25:35.616Z,33.46
2022-09-05T16:28:28.548Z,33.59
2022-09-05T16:31:38.261Z,33.40
2022-09-05T16:34:44.234Z,33.34
2022-09-05T16:37:39.397Z,33.14
2022-09-05T16:40:35.954Z,32.81
2022-09-05T16:43:28.686Z,32.66
2022-09-05T16:46:30.602Z,32.53
2022-09-05T16:49:42.229Z,32.19
2022-09-05T16:52:53.655Z,31.72
2022-09-05T16:55:47.861Z,31.62
2022-09-05T16:58:40.434Z,31.07
2022-09-05T17:02:06.707Z,30.95
2022-09-05T17:05:13.384Z,30.60
2022-09-05T17:08:24.089Z,29.76
2022-09-05T17:11:29.900Z,29.44
2022-09-05T17:14:21.278Z,29.13
2022-09-05T17:17:36.508Z,28.98
2022-09-05T17:20:21.798Z,28.79
2022-09-05T17:29:20.234Z,28.24
2022-09-05T17:29:49.646Z,27.86
2022-09-05T17:33:40.308Z,27.63
2022-09-05T17:36:41.166Z,27.56
2022-09-05T17:39:58.658Z,27.49
2022-09-05T17:42:54.317Z,27.07
2022-09-05T17:45:45.680Z,26.98
2022-09-05T17:49:18.581Z,26.61
2022-09-05T17:52:18.201Z,26.64
2022-09-05T17:55:12.760Z,26.64
2022-09-05T17:58:21.803Z,26.78
2022-09-05T18:01:17.196Z,26.43
2022-09-05T18:04:16.557Z,25.99
2022-09-05T18:07:31.338Z,25.77
2022-09-05T18:10:27.598Z,25.74
2022-09-05T18:13:32.530Z,25.52
2022-09-05T18:16:43.793Z,25.57
2022-09-05T18:19:49.422Z,25.58
2022-09-05T18:23:26.394Z,25.27
2022-09-05T18:26:20.944Z,25.46
2022-09-05T18:29:58.428Z,25.01
2022-09-05T18:32:54.692Z,24.99
2022-09-05T18:35:57.884Z,24.78
2022-09-05T18:38:51.674Z,24.52
2022-09-05T18:41:41.815Z,24.14
2022-09-05T18:44:31.863Z,23.90
2022-09-05T18:47:33.748Z,24.09
2022-09-05T18:50:27.928Z,24.18
2022-09-05T18:53:25.385Z,23.86
2022-09-05T18:57:19.863Z,23.63
2022-09-05T19:00:03.573Z,23.66
2022-09-05T19:02:58.893Z,23.54
2022-09-05T19:06:34.984Z,23.36
2022-09-05T19:09:09.860Z,23.18
2022-09-05T19:12:33.518Z,23.25
2022-09-05T19:15:26.251Z,23.09
2022-09-05T19:18:40.537Z,22.94
2022-09-05T19:21:47.407Z,22.92
2022-09-05T19:24:46.321Z,22.73
2022-09-05T19:29:39.076Z,22.44
2022-09-05T19:36:49.567Z,21.93
2022-09-05T19:37:15.102Z,22.55
2022-09-05T19:44:00.505Z,22.43
2022-09-05T19:47:41.502Z,22.08
2022-09-05T19:50:28.575Z,21.91
2022-09-05T19:53:18.036Z,21.78
2022-09-05T19:56:05.156Z,21.85
2022-09-05T19:58:52.692Z,21.77
2022-09-05T20:01:43.146Z,21.74
2022-09-05T20:04:38.853Z,21.85
2022-09-05T20:07:27.818Z,21.74
2022-09-05T20:10:28.185Z,21.86
2022-09-05T20:13:21.942Z,21.88
2022-09-05T20:16:11.264Z,21.89
2022-09-05T20:18:57.759Z,21.98
2022-09-05T20:25:37.103Z,22.11
2022-09-05T20:28:37.954Z,21.86
2022-09-05T20:31:27.393Z,21.87
2022-09-05T20:34:36.966Z,21.77
2022-09-05T20:43:10.916Z,21.65
2022-09-05T20:43:24.420Z,21.99
2022-09-05T20:43:58.043Z,21.78
2022-09-05T20:52:57.206Z,21.48
2022-09-05T20:54:14.531Z,21.09
2022-09-05T20:54:20.750Z,21.59
2022-09-05T20:56:56.344Z,21.00
2022-09-05T20:59:43.327Z,21.39
2022-09-05T21:02:33.124Z,21.76
2022-09-05T21:05:27.722Z,21.15
2022-09-05T21:08:23.998Z,21.49
2022-09-05T21:11:10.623Z,21.56
2022-09-05T21:14:00.790Z,21.11
2022-09-05T21:16:57.635Z,21.07
2022-09-05T21:19:53.200Z,21.61
2022-09-05T21:22:43.654Z,21.41
2022-09-05T21:25:44.020Z,21.78
2022-09-05T21:28:37.087Z,21.46
2022-09-05T21:31:25.709Z,21.14
2022-09-05T21:34:16.210Z,21.05
2022-09-05T21:37:07.683Z,20.80
2022-09-05T21:39:58.760Z,21.06
2022-09-05T21:47:34.912Z,21.06
2022-09-05T21:47:47.587Z,21.01
2022-09-05T21:49:07.709Z,20.83
2022-09-05T21:51:54.152Z,20.57
2022-09-05T21:59:18.297Z,20.32
2022-09-05T21:59:19.732Z,20.72
2022-09-05T22:00:56.148Z,20.90
2022-09-05T22:03:44.619Z,20.94
2022-09-05T22:06:31.474Z,21.11
2022-09-05T22:09:19.927Z,21.03
2022-09-05T22:12:17.491Z,21.21
2022-09-05T22:15:28.153Z,21.16
2022-09-05T22:18:26.999Z,20.81
2022-09-05T22:21:32.239Z,21.14
2022-09-05T22:24:21.853Z,20.83
2022-09-05T22:27:12.738Z,21.23
2022-09-05T22:29:59.145Z,20.87
2022-09-05T22:32:45.587Z,20.86
2022-09-05T22:35:36.852Z,20.76
2022-09-05T22:38:23.096Z,20.71
2022-09-05T22:41:12.990Z,20.70
2022-09-05T22:44:00.609Z,20.15
2022-09-05T22:46:47.030Z,20.50
2022-09-05T22:49:34.177Z,20.74
2022-09-05T22:52:20.544Z,20.86
2022-09-05T22:55:07.396Z,20.32
2022-09-05T22:57:53.653Z,20.07
2022-09-05T23:00:41.684Z,20.09
2022-09-05T23:03:27.857Z,20.67
2022-09-05T23:06:14.237Z,19.64
2022-09-05T23:09:00.675Z,20.54
2022-09-05T23:11:47.029Z,20.85
2022-09-05T23:14:33.241Z,20.51
2022-09-05T23:17:19.694Z,20.63
2022-09-05T23:20:06.632Z,20.36
2022-09-05T23:22:52.842Z,20.77
2022-09-05T23:25:39.178Z,20.62
2022-09-05T23:28:25.586Z,20.37
2022-09-05T23:31:12.294Z,20.54
2022-09-05T23:33:58.956Z,20.34
2022-09-05T23:36:45.183Z,20.01
2022-09-05T23:39:31.610Z,20.24
2022-09-05T23:42:17.954Z,20.18
2022-09-05T23:45:04.460Z,20.01
2022-09-05T23:47:51.058Z,20.01
2022-09-05T23:50:37.910Z,20.05
2022-09-05T23:53:24.335Z,20.08
2022-09-05T23:56:11.192Z,20.11
2022-09-05T23:58:57.157Z,20.42
